Time;durP1;ratioP1;P1;durP2;ratioP2;P2;SDS_P1;SDS_P2;PMS_P1;PMS_P2;Temp;Humidity;BMP_temperature;BMP_pressure;BME280_temperature;BME280_humidity;BME280_pressure;Samples;Min_cycle;Max_cycle;Signal;HPM_P1;HPM_P2
2023/10/11 00:00:45;;;;;;;7.73;6.57;;;16.40;99.90;;;;;;5038948;28;20894;-65
2023/10/11 00:03:16;;;;;;;11.33;8.40;;;16.40;99.90;;;;;;5041667;28;20505;-63
2023/10/11 00:05:46;;;;;;;9.23;7.10;;;16.40;99.90;;;;;;5040688;28;22587;-64
2023/10/11 00:08:17;;;;;;;10.00;7.57;;;16.40;99.90;;;;;;5039993;28;20966;-63
2023/10/11 00:10:53;;;;;;;9.53;7.10;;;16.40;99.90;;;;;;5042434;28;21188;-65
2023/10/11 00:13:22;;;;;;;9.67;7.40;;;16.30;99.90;;;;;;5045386;28;20485;-65
2023/10/11 00:15:52;;;;;;;9.00;7.67;;;16.30;99.90;;;;;;5037207;28;20501;-65
2023/10/11 00:18:21;;;;;;;7.23;6.40;;;16.30;99.90;;;;;;5039234;28;20526;-65
2023/10/11 00:20:56;;;;;;;8.07;7.27;;;16.30;99.90;;;;;;5042227;28;20961;-65
2023/10/11 00:23:26;;;;;;;8.80;7.00;;;16.30;99.90;;;;;;5045551;28;20489;-64
2023/10/11 00:25:58;;;;;;;9.70;7.03;;;16.30;99.90;;;;;;5043141;28;20571;-64
2023/10/11 00:28:31;;;;;;;12.40;7.10;;;16.30;99.90;;;;;;5040176;28;20459;-63
2023/10/11 00:31:01;;;;;;;8.70;5.90;;;16.30;99.90;;;;;;5036517;28;20498;-65
2023/10/11 00:33:31;;;;;;;11.47;7.00;;;16.30;99.90;;;;;;5041536;28;20497;-62
2023/10/11 00:36:07;;;;;;;10.37;7.20;;;16.30;99.90;;;;;;5047111;28;20489;-62
2023/10/11 00:38:47;;;;;;;6.90;6.20;;;16.20;99.90;;;;;;5039278;28;20969;-63
2023/10/11 00:41:18;;;;;;;7.00;6.30;;;16.20;99.90;;;;;;5041875;28;20556;-61
2023/10/11 00:43:51;;;;;;;7.23;6.57;;;16.20;99.90;;;;;;5046714;28;20492;-62
2023/10/11 00:46:22;;;;;;;7.13;6.30;;;16.20;99.90;;;;;;5042054;28;20578;-63
2023/10/11 00:48:54;;;;;;;7.73;6.63;;;16.20;99.90;;;;;;5044642;28;20605;-61
2023/10/11 00:51:24;;;;;;;7.03;6.20;;;16.20;99.90;;;;;;5045405;28;20604;-61
2023/10/11 00:53:52;;;;;;;8.07;6.50;;;16.20;99.90;;;;;;5044739;28;21037;-62
2023/10/11 00:56:22;;;;;;;7.50;6.80;;;16.20;99.90;;;;;;5042692;28;20581;-62
2023/10/11 00:58:51;;;;;;;9.00;7.07;;;16.10;99.90;;;;;;5042602;28;20955;-63
2023/10/11 01:01:22;;;;;;;6.80;6.20;;;16.10;99.90;;;;;;5043029;28;20544;-62
2023/10/11 01:03:51;;;;;;;10.00;7.30;;;16.10;99.90;;;;;;5044915;28;20506;-63
2023/10/11 01:06:25;;;;;;;7.57;6.87;;;16.10;99.90;;;;;;5044178;28;20923;-64
2023/10/11 01:08:54;;;;;;;8.17;7.30;;;16.10;99.90;;;;;;5045578;28;20477;-64
2023/10/11 01:11:24;;;;;;;7.87;7.10;;;16.00;99.90;;;;;;5043809;28;20489;-63
2023/10/11 01:13:52;;;;;;;7.33;6.53;;;16.00;99.90;;;;;;5047848;28;20489;-63
2023/10/11 01:16:27;;;;;;;8.43;6.23;;;16.00;99.90;;;;;;5044596;28;20585;-64
2023/10/11 01:18:55;;;;;;;8.07;6.20;;;16.00;99.90;;;;;;5046476;28;20561;-63
2023/10/11 01:21:27;;;;;;;8.40;7.50;;;16.00;99.90;;;;;;5047002;28;20465;-63
2023/10/11 01:23:57;;;;;;;9.20;7.23;;;16.00;99.90;;;;;;5044132;28;20569;-63
2023/10/11 01:26:27;;;;;;;7.77;6.53;;;16.00;99.90;;;;;;5043950;28;20474;-64
2023/10/11 01:28:56;;;;;;;7.57;6.77;;;16.00;99.90;;;;;;5044037;28;20986;-63
2023/10/11 01:31:26;;;;;;;10.87;6.90;;;16.00;99.90;;;;;;5048792;28;20490;-63
2023/10/11 01:33:55;;;;;;;7.50;6.30;;;15.90;99.90;;;;;;5045278;28;20502;-64
2023/10/11 01:36:26;;;;;;;8.20;7.30;;;16.00;99.90;;;;;;5045719;28;21288;-67
2023/10/11 01:38:54;;;;;;;7.60;6.70;;;16.00;99.90;;;;;;5047401;28;21065;-66
2023/10/11 01:41:26;;;;;;;8.20;6.33;;;15.90;99.90;;;;;;5042514;28;20534;-66
2023/10/11 01:43:56;;;;;;;9.97;6.80;;;15.90;99.90;;;;;;5044093;28;20497;-66
2023/10/11 01:46:26;;;;;;;8.27;7.07;;;15.90;99.90;;;;;;5046178;28;20975;-63
2023/10/11 01:48:56;;;;;;;8.20;6.97;;;15.90;99.90;;;;;;5044151;28;20478;-63
2023/10/11 01:51:27;;;;;;;7.13;6.43;;;15.80;99.90;;;;;;5045617;28;20492;-64
2023/10/11 01:53:56;;;;;;;8.93;6.53;;;15.80;99.90;;;;;;5041532;28;20595;-63
2023/10/11 01:56:24;;;;;;;8.83;6.83;;;15.80;99.90;;;;;;5043907;28;20470;-63
2023/10/11 01:58:52;;;;;;;7.90;6.53;;;15.80;99.90;;;;;;5045048;28;20888;-64
2023/10/11 02:01:26;;;;;;;8.00;6.80;;;15.80;99.90;;;;;;5038426;28;20481;-63
2023/10/11 02:03:57;;;;;;;11.10;7.53;;;15.70;99.90;;;;;;5042626;28;20722;-64
2023/10/11 02:06:31;;;;;;;7.97;6.83;;;15.70;99.90;;;;;;5038667;28;21116;-63
2023/10/11 02:09:00;;;;;;;7.70;7.00;;;15.80;99.90;;;;;;5040277;28;20833;-63
2023/10/11 02:11:30;;;;;;;8.27;6.27;;;15.70;99.90;;;;;;5032228;28;20498;-66
2023/10/11 02:13:58;;;;;;;7.80;6.97;;;15.80;99.90;;;;;;5049058;28;20482;-65
2023/10/11 02:16:28;;;;;;;7.03;6.33;;;15.70;99.90;;;;;;5045496;28;20469;-64
2023/10/11 02:18:59;;;;;;;11.50;6.90;;;15.70;99.90;;;;;;5044928;28;20479;-63
2023/10/11 02:21:30;;;;;;;8.00;6.20;;;15.70;99.90;;;;;;5047251;28;20469;-63
2023/10/11 02:23:59;;;;;;;7.67;6.40;;;15.70;99.90;;;;;;5034813;28;20786;-63
2023/10/11 02:26:31;;;;;;;12.60;7.13;;;15.70;99.90;;;;;;5040774;28;20953;-67
2023/10/11 02:29:00;;;;;;;9.83;6.60;;;15.60;99.90;;;;;;5042402;28;20975;-66
2023/10/11 02:31:33;;;;;;;9.60;6.93;;;15.60;99.90;;;;;;5044006;28;20477;-66
2023/10/11 02:34:12;;;;;;;7.73;6.80;;;15.60;99.90;;;;;;5039011;28;20483;-66
2023/10/11 02:36:43;;;;;;;9.50;7.40;;;15.60;99.90;;;;;;5043669;28;20991;-66
2023/10/11 02:39:17;;;;;;;8.80;7.63;;;15.60;99.90;;;;;;5043380;28;20478;-66
2023/10/11 02:41:47;;;;;;;10.70;8.57;;;15.50;99.90;;;;;;5043910;28;21034;-66
2023/10/11 02:44:15;;;;;;;7.73;6.93;;;15.50;99.90;;;;;;5039135;28;20640;-65
2023/10/11 02:46:44;;;;;;;8.30;7.23;;;15.50;99.90;;;;;;5043933;28;20477;-66
2023/10/11 02:49:19;;;;;;;9.77;6.80;;;15.50;99.90;;;;;;5037943;28;20477;-66
2023/10/11 02:51:53;;;;;;;8.43;6.97;;;15.60;99.90;;;;;;5038396;28;22439;-66
2023/10/11 02:54:24;;;;;;;10.23;7.63;;;15.60;99.90;;;;;;5038238;28;20475;-66
2023/10/11 02:56:52;;;;;;;10.00;6.90;;;15.60;99.90;;;;;;5042942;28;20501;-66
2023/10/11 02:59:22;;;;;;;9.70;7.47;;;15.60;99.90;;;;;;5040881;28;20532;-64
2023/10/11 03:02:00;;;;;;;9.07;8.10;;;15.50;99.90;;;;;;5044007;28;20539;-64
2023/10/11 03:04:29;;;;;;;10.60;7.67;;;15.50;99.90;;;;;;5040127;28;20892;-64
2023/10/11 03:07:00;;;;;;;9.20;7.40;;;15.50;99.90;;;;;;5039129;28;21125;-62
2023/10/11 03:09:28;;;;;;;10.37;7.93;;;15.50;99.90;;;;;;5043800;28;20469;-63
2023/10/11 03:12:05;;;;;;;11.10;8.57;;;15.50;99.90;;;;;;5038915;28;20473;-63
2023/10/11 03:14:41;;;;;;;7.57;6.87;;;15.50;99.90;;;;;;5039435;28;20501;-63
2023/10/11 03:17:13;;;;;;;12.53;8.00;;;15.50;99.90;;;;;;5030734;28;20872;-62
2023/10/11 03:19:43;;;;;;;13.27;7.23;;;15.50;99.90;;;;;;5036019;28;20531;-63
2023/10/11 03:22:19;;;;;;;9.17;8.27;;;15.50;99.90;;;;;;5041891;28;20478;-62
2023/10/11 03:24:53;;;;;;;8.33;7.33;;;15.50;99.90;;;;;;5041934;28;20516;-62
2023/10/11 03:27:23;;;;;;;9.17;8.00;;;15.50;99.90;;;;;;5045896;28;20480;-63
2023/10/11 03:29:53;;;;;;;8.97;7.07;;;15.50;99.90;;;;;;5043936;28;20484;-62
2023/10/11 03:32:25;;;;;;;9.37;8.47;;;15.50;99.90;;;;;;5043335;28;20583;-62
2023/10/11 03:34:55;;;;;;;10.80;7.80;;;15.50;99.90;;;;;;5041424;28;20891;-61
2023/10/11 03:37:27;;;;;;;10.13;8.53;;;15.50;99.90;;;;;;5042545;28;20493;-64
2023/10/11 03:39:57;;;;;;;10.40;7.77;;;15.40;99.90;;;;;;5046453;28;20468;-64
2023/10/11 03:42:50;;;;;;;9.30;8.17;;;15.40;99.90;;;;;;5044751;28;20465;-64
2023/10/11 03:45:20;;;;;;;9.60;8.60;;;15.40;99.90;;;;;;5041207;28;21259;-64
2023/10/11 03:47:52;;;;;;;14.30;8.83;;;15.40;99.90;;;;;;5049089;28;20472;-64
2023/10/11 03:50:25;;;;;;;9.57;7.77;;;15.40;99.90;;;;;;5046613;28;20892;-64
2023/10/11 03:53:06;;;;;;;9.97;8.10;;;15.40;99.90;;;;;;5047572;28;20502;-64
2023/10/11 03:55:43;;;;;;;9.43;8.07;;;15.40;99.90;;;;;;5048814;28;20861;-64
2023/10/11 03:58:22;;;;;;;9.33;8.33;;;15.40;99.90;;;;;;5045251;28;21107;-62
2023/10/11 04:00:51;;;;;;;9.13;7.93;;;15.40;99.90;;;;;;5045061;28;20473;-62
2023/10/11 04:03:21;;;;;;;9.60;8.03;;;15.30;99.90;;;;;;5047009;28;20488;-63
2023/10/11 04:05:50;;;;;;;9.30;8.00;;;15.30;99.90;;;;;;5044116;28;21033;-62
2023/10/11 04:08:24;;;;;;;9.00;8.10;;;15.30;99.90;;;;;;5047822;28;20481;-61
2023/10/11 04:10:53;;;;;;;10.77;7.90;;;15.30;99.90;;;;;;5046538;28;20518;-63
2023/10/11 04:13:26;;;;;;;8.07;7.27;;;15.30;99.90;;;;;;5045708;28;20501;-63
2023/10/11 04:15:58;;;;;;;8.77;7.87;;;15.30;99.90;;;;;;5043929;28;20651;-62
2023/10/11 04:18:37;;;;;;;8.83;7.83;;;15.30;99.90;;;;;;5045145;28;20466;-63
2023/10/11 04:23:56;;;;;;;10.37;8.70;;;15.30;99.90;;;;;;5042177;28;21057;-62
2023/10/11 04:26:33;;;;;;;10.40;8.50;;;15.30;99.90;;;;;;5042785;28;20996;-64
2023/10/11 04:29:15;;;;;;;16.20;9.70;;;15.30;99.90;;;;;;5039123;28;20470;-66
2023/10/11 04:34:32;;;;;;;9.00;7.93;;;15.30;99.90;;;;;;5036881;28;20628;-63
2023/10/11 04:37:06;;;;;;;11.07;9.27;;;15.30;99.90;;;;;;5039735;28;20842;-61
2023/10/11 04:39:49;;;;;;;11.93;8.37;;;15.30;99.90;;;;;;5048255;28;20939;-63
2023/10/11 04:42:19;;;;;;;8.73;7.77;;;15.30;99.90;;;;;;5036260;28;20470;-62
2023/10/11 04:44:54;;;;;;;10.70;8.67;;;15.30;99.90;;;;;;5040501;28;21061;-63
2023/10/11 04:47:23;;;;;;;11.80;8.87;;;15.30;99.90;;;;;;5031464;28;20478;-63
2023/10/11 04:49:54;;;;;;;8.87;7.90;;;15.30;99.90;;;;;;5041221;28;20475;-62
2023/10/11 04:52:31;;;;;;;9.50;8.50;;;15.20;99.90;;;;;;5035130;28;20473;-63
2023/10/11 04:55:12;;;;;;;9.77;8.50;;;15.30;99.90;;;;;;5041147;28;21049;-64
2023/10/11 04:57:57;;;;;;;9.50;7.60;;;15.30;99.90;;;;;;5045959;28;20663;-62
2023/10/11 05:00:30;;;;;;;10.13;8.43;;;15.30;99.90;;;;;;5043854;28;20465;-63
2023/10/11 05:03:02;;;;;;;8.67;7.70;;;15.20;99.90;;;;;;5038007;28;20534;-63
2023/10/11 05:05:31;;;;;;;9.90;8.83;;;15.20;99.90;;;;;;5040373;28;20551;-63
2023/10/11 05:08:08;;;;;;;10.73;8.87;;;15.20;99.90;;;;;;5047913;28;20471;-63
2023/10/11 05:10:43;;;;;;;12.03;8.87;;;15.20;99.90;;;;;;5048206;28;20479;-64
2023/10/11 05:13:13;;;;;;;8.80;7.90;;;15.20;99.90;;;;;;5047355;28;21600;-63
2023/10/11 05:15:46;;;;;;;11.27;9.40;;;15.20;99.90;;;;;;5040464;28;21062;-64
2023/10/11 05:18:23;;;;;;;10.23;8.50;;;15.20;99.90;;;;;;5032802;28;20477;-63
2023/10/11 05:21:04;;;;;;;10.50;8.40;;;15.20;99.90;;;;;;5041079;28;20850;-64
2023/10/11 05:23:52;;;;;;;8.70;7.83;;;15.20;99.90;;;;;;5038850;28;20490;-63
2023/10/11 05:26:36;;;;;;;11.27;9.27;;;15.10;99.90;;;;;;5043758;28;21021;-66
2023/10/11 05:29:23;;;;;;;10.50;9.50;;;15.20;99.90;;;;;;5050545;28;20472;-64
2023/10/11 05:32:19;;;;;;;8.60;7.60;;;15.20;99.90;;;;;;5030932;28;20461;-63
2023/10/11 05:34:51;;;;;;;9.90;8.60;;;15.20;99.90;;;;;;5039989;28;20499;-65
2023/10/11 05:51:10;;;;;;;9.47;8.20;;;15.20;99.90;;;;;;5035529;28;21036;-64
2023/10/11 05:53:40;;;;;;;12.87;8.00;;;15.20;99.90;;;;;;5039235;28;20862;-63
2023/10/11 05:56:09;;;;;;;10.30;9.20;;;15.20;99.90;;;;;;5037998;28;20505;-63
2023/10/11 05:58:39;;;;;;;10.63;8.40;;;15.20;99.90;;;;;;5025973;28;20571;-64
2023/10/11 06:01:13;;;;;;;10.60;8.63;;;15.20;99.90;;;;;;5037397;28;20478;-64
2023/10/11 06:03:41;;;;;;;9.17;8.27;;;15.30;99.90;;;;;;5037096;28;20557;-64
2023/10/11 06:06:23;;;;;;;10.87;9.20;;;15.30;99.90;;;;;;5033688;28;20489;-64
2023/10/11 06:08:52;;;;;;;8.77;7.87;;;15.30;99.90;;;;;;5037031;28;20477;-64
2023/10/11 06:11:23;;;;;;;15.67;8.60;;;15.30;99.90;;;;;;5033063;28;20472;-64
2023/10/11 06:13:53;;;;;;;10.90;9.10;;;15.30;99.90;;;;;;5038585;28;20592;-64
2023/10/11 06:16:22;;;;;;;11.57;8.40;;;15.30;99.90;;;;;;5041902;28;21036;-64
2023/10/11 06:18:57;;;;;;;13.20;9.43;;;15.30;99.90;;;;;;5039756;28;20496;-63
2023/10/11 06:21:32;;;;;;;9.47;8.53;;;15.40;99.90;;;;;;5039347;28;20473;-64
2023/10/11 06:24:03;;;;;;;10.47;8.90;;;15.40;99.90;;;;;;5042323;28;20847;-64
2023/10/11 06:29:24;;;;;;;10.30;8.67;;;15.40;99.90;;;;;;5037864;28;20469;-64
2023/10/11 06:31:53;;;;;;;10.03;8.97;;;15.40;99.90;;;;;;5038369;28;20461;-64
2023/10/11 06:34:25;;;;;;;10.77;9.30;;;15.40;99.90;;;;;;5040861;28;20485;-64
2023/10/11 06:36:55;;;;;;;11.57;8.77;;;15.40;99.90;;;;;;5039913;28;20691;-62
2023/10/11 06:42:23;;;;;;;10.80;8.57;;;15.50;99.90;;;;;;5041448;28;21013;-64
2023/10/11 06:44:57;;;;;;;9.57;8.67;;;15.50;99.90;;;;;;5039539;28;21184;-64
2023/10/11 06:47:28;;;;;;;9.13;8.10;;;15.60;99.90;;;;;;5036717;28;23505;-62
2023/10/11 06:50:10;;;;;;;12.37;8.80;;;15.60;99.90;;;;;;5039009;28;20473;-64
2023/10/11 06:52:43;;;;;;;9.70;8.70;;;15.60;99.90;;;;;;5033545;28;21745;-65
2023/10/11 06:55:16;;;;;;;10.37;8.77;;;15.60;99.90;;;;;;5036138;28;20492;-64
2023/10/11 06:57:50;;;;;;;11.67;7.53;;;15.70;99.90;;;;;;5033235;28;20502;-62
2023/10/11 07:00:23;;;;;;;12.10;9.27;;;15.70;99.90;;;;;;5041803;28;20547;-62
2023/10/11 07:02:53;;;;;;;9.60;8.70;;;15.80;99.90;;;;;;5028304;28;21238;-63
2023/10/11 07:05:25;;;;;;;10.43;8.93;;;15.80;99.90;;;;;;5032100;28;20490;-64
2023/10/11 07:07:55;;;;;;;10.23;8.17;;;15.90;99.90;;;;;;5026173;28;20475;-64
2023/10/11 07:10:31;;;;;;;9.73;8.70;;;15.90;99.90;;;;;;5028373;28;21069;-64
2023/10/11 07:13:07;;;;;;;10.90;9.10;;;15.90;99.90;;;;;;5035492;28;20508;-64
2023/10/11 07:15:38;;;;;;;12.27;9.30;;;15.90;99.90;;;;;;5030271;28;20660;-63
2023/10/11 07:18:10;;;;;;;11.57;8.97;;;15.90;99.90;;;;;;5030394;28;20530;-64
2023/10/11 07:20:49;;;;;;;11.70;8.70;;;16.00;99.90;;;;;;5030640;28;20461;-62
2023/10/11 07:23:21;;;;;;;10.90;8.90;;;16.00;99.90;;;;;;5036332;28;22859;-62
2023/10/11 07:25:59;;;;;;;10.43;8.30;;;16.00;99.90;;;;;;5033790;28;20495;-62
2023/10/11 07:28:35;;;;;;;9.50;8.20;;;16.10;99.90;;;;;;5028912;28;20570;-62
2023/10/11 07:31:13;;;;;;;9.30;8.40;;;16.10;99.90;;;;;;5026875;28;20567;-64
2023/10/11 07:33:40;;;;;;;9.60;8.70;;;16.10;99.90;;;;;;5030465;28;20859;-62
2023/10/11 07:36:11;;;;;;;9.37;8.37;;;16.10;99.90;;;;;;5034110;28;20979;-64
2023/10/11 07:38:43;;;;;;;10.83;8.57;;;16.20;99.90;;;;;;5029451;28;21182;-64
2023/10/11 07:41:18;;;;;;;11.30;9.30;;;16.10;99.90;;;;;;5031937;28;20596;-64
2023/10/11 07:43:46;;;;;;;12.03;8.40;;;16.20;99.90;;;;;;5035463;28;21159;-63
2023/10/11 07:46:17;;;;;;;12.00;8.60;;;16.20;99.90;;;;;;5036091;28;20493;-64
2023/10/11 07:48:44;;;;;;;11.57;9.43;;;16.20;99.90;;;;;;5027114;28;20461;-64
2023/10/11 07:51:16;;;;;;;12.00;9.50;;;16.20;99.90;;;;;;5033611;28;21007;-62
2023/10/11 07:53:45;;;;;;;13.13;8.30;;;16.20;99.90;;;;;;5034453;28;21372;-62
2023/10/11 07:56:15;;;;;;;10.87;8.97;;;16.20;99.90;;;;;;5034052;28;20559;-61
2023/10/11 07:58:46;;;;;;;12.77;8.60;;;16.20;99.90;;;;;;5040097;28;21029;-62
2023/10/11 08:01:25;;;;;;;13.03;9.27;;;16.30;99.90;;;;;;5039136;28;20739;-61
2023/10/11 08:03:54;;;;;;;11.17;8.83;;;16.30;99.90;;;;;;5046457;28;21057;-63
2023/10/11 08:06:25;;;;;;;12.23;9.33;;;16.40;99.90;;;;;;5047892;28;20484;-62
2023/10/11 08:08:59;;;;;;;10.83;8.80;;;16.40;99.90;;;;;;5044212;28;20501;-63
2023/10/11 08:11:36;;;;;;;9.57;8.57;;;16.30;99.90;;;;;;5044560;28;20477;-62
2023/10/11 08:14:13;;;;;;;12.73;8.80;;;16.30;99.90;;;;;;5042875;28;21404;-61
2023/10/11 08:16:47;;;;;;;10.70;9.23;;;16.40;99.90;;;;;;5038866;28;20492;-64
2023/10/11 08:19:15;;;;;;;9.60;8.60;;;16.40;99.90;;;;;;5034181;28;20674;-64
2023/10/11 08:21:50;;;;;;;10.80;8.77;;;16.40;99.90;;;;;;5039058;28;20535;-63
2023/10/11 08:24:24;;;;;;;11.13;8.37;;;16.50;99.90;;;;;;5043566;28;20493;-64
2023/10/11 08:26:53;;;;;;;11.37;8.50;;;16.50;99.90;;;;;;5040938;28;20473;-62
2023/10/11 08:29:31;;;;;;;12.50;9.60;;;16.50;99.90;;;;;;5041697;28;20588;-64
2023/10/11 08:32:06;;;;;;;14.90;9.43;;;16.50;99.90;;;;;;5045581;28;20485;-63
2023/10/11 08:34:35;;;;;;;10.47;9.30;;;16.50;99.90;;;;;;5046587;28;21461;-64
2023/10/11 08:37:07;;;;;;;12.10;8.70;;;16.60;99.90;;;;;;5049492;28;20477;-63
2023/10/11 08:39:42;;;;;;;9.97;7.73;;;16.60;99.90;;;;;;5043500;28;20470;-63
2023/10/11 08:42:11;;;;;;;10.70;8.33;;;16.70;99.90;;;;;;5039665;28;21197;-64
2023/10/11 08:44:44;;;;;;;11.93;8.90;;;16.70;99.90;;;;;;5043919;28;20503;-62
2023/10/11 08:47:16;;;;;;;14.30;9.30;;;16.80;99.90;;;;;;5038766;28;20470;-62
2023/10/11 08:49:48;;;;;;;11.40;8.70;;;16.80;99.90;;;;;;5042547;28;20475;-64
2023/10/11 08:52:22;;;;;;;13.27;9.63;;;16.80;99.90;;;;;;5045102;28;20520;-63
2023/10/11 08:54:53;;;;;;;11.83;9.57;;;16.90;99.90;;;;;;5049811;28;20610;-63
2023/10/11 08:57:25;;;;;;;14.60;8.73;;;16.90;99.90;;;;;;5048957;28;20770;-64
2023/10/11 08:59:56;;;;;;;12.60;10.30;;;17.00;99.90;;;;;;5044401;28;20474;-63
2023/10/11 09:02:29;;;;;;;12.13;8.67;;;17.00;99.90;;;;;;5050652;28;20470;-64
2023/10/11 09:05:06;;;;;;;14.17;9.80;;;16.90;99.90;;;;;;5048981;28;20960;-63
2023/10/11 09:07:39;;;;;;;12.73;9.37;;;16.90;99.90;;;;;;5051173;28;20469;-61
2023/10/11 09:10:25;;;;;;;14.87;10.40;;;16.90;99.90;;;;;;5049997;28;20571;-63
2023/10/11 09:12:57;;;;;;;16.53;9.67;;;16.90;99.90;;;;;;5046965;28;20557;-64
2023/10/11 09:15:42;;;;;;;10.43;8.90;;;16.90;99.90;;;;;;5042204;28;20524;-63
2023/10/11 09:18:14;;;;;;;13.57;9.53;;;17.00;99.90;;;;;;5048399;28;20474;-63
2023/10/11 09:20:49;;;;;;;16.00;9.93;;;17.00;99.90;;;;;;5045999;28;20868;-64
2023/10/11 09:23:21;;;;;;;12.27;9.60;;;17.10;99.90;;;;;;5046525;28;20490;-64
2023/10/11 09:25:58;;;;;;;12.67;9.93;;;17.10;99.90;;;;;;5049886;28;20492;-64
2023/10/11 09:28:27;;;;;;;13.20;9.20;;;17.10;99.90;;;;;;5046926;28;20469;-63
2023/10/11 09:31:11;;;;;;;10.27;9.00;;;17.10;99.90;;;;;;5050123;28;21041;-64
2023/10/11 09:33:49;;;;;;;10.23;9.17;;;17.20;99.90;;;;;;5046805;28;21122;-63
2023/10/11 09:36:20;;;;;;;12.43;9.50;;;17.20;99.90;;;;;;5044178;28;20493;-63
2023/10/11 09:38:54;;;;;;;14.10;10.40;;;17.20;99.90;;;;;;5043316;28;20974;-63
2023/10/11 09:41:28;;;;;;;10.33;9.33;;;17.20;99.90;;;;;;5043300;28;20690;-64
2023/10/11 09:43:58;;;;;;;15.50;9.97;;;17.20;99.90;;;;;;5049248;28;20539;-65
2023/10/11 09:46:30;;;;;;;16.43;10.03;;;17.20;99.90;;;;;;5041376;28;20908;-65
2023/10/11 09:49:01;;;;;;;14.47;10.50;;;17.20;99.90;;;;;;5047405;28;20470;-65
2023/10/11 09:51:30;;;;;;;11.43;10.10;;;17.20;99.90;;;;;;5048277;28;21014;-65
2023/10/11 09:54:07;;;;;;;13.23;10.30;;;17.20;99.90;;;;;;5050700;28;20502;-65
2023/10/11 09:56:45;;;;;;;12.03;10.57;;;17.20;99.90;;;;;;5050874;28;21045;-65
2023/10/11 09:59:23;;;;;;;12.83;10.80;;;17.20;99.90;;;;;;5047965;28;20823;-64
2023/10/11 10:02:02;;;;;;;13.50;10.03;;;17.10;99.90;;;;;;5049004;28;20478;-64
2023/10/11 10:05:02;;;;;;;13.10;10.50;;;17.10;99.90;;;;;;5041982;28;20500;-64
2023/10/11 10:07:42;;;;;;;15.83;11.07;;;17.10;99.90;;;;;;5051197;28;20990;-64
2023/10/11 10:10:13;;;;;;;17.53;11.10;;;17.20;99.90;;;;;;5050782;28;20484;-64
2023/10/11 10:12:42;;;;;;;11.80;10.60;;;17.20;99.90;;;;;;5047649;28;20683;-64
2023/10/11 10:15:13;;;;;;;12.40;10.40;;;17.20;99.90;;;;;;5045645;28;20573;-64
2023/10/11 10:18:19;;;;;;;15.63;10.87;;;17.20;99.90;;;;;;5045494;28;20560;-64
2023/10/11 10:21:01;;;;;;;14.23;11.50;;;17.20;99.90;;;;;;5045556;28;22244;-66
2023/10/11 10:23:30;;;;;;;16.67;11.90;;;17.20;99.90;;;;;;5049062;28;21755;-64
2023/10/11 10:26:38;;;;;;;13.83;11.90;;;17.10;99.90;;;;;;5049173;28;21213;-66
2023/10/11 10:29:12;;;;;;;14.67;11.30;;;17.10;99.90;;;;;;5046197;28;20501;-66
2023/10/11 10:32:06;;;;;;;13.17;11.30;;;17.10;99.90;;;;;;5041409;28;20478;-66
2023/10/11 10:34:34;;;;;;;12.73;11.43;;;17.10;99.90;;;;;;5048437;28;20666;-66
2023/10/11 10:37:09;;;;;;;15.20;11.80;;;17.10;99.90;;;;;;5066163;28;20586;-66
2023/10/11 10:40:15;;;;;;;16.07;11.50;;;17.10;99.90;;;;;;5067075;28;20500;-66
2023/10/11 10:43:20;;;;;;;13.03;11.60;;;17.10;99.90;;;;;;5060780;28;21039;-66
2023/10/11 10:45:48;;;;;;;13.40;11.43;;;17.10;99.90;;;;;;5050357;28;20493;-66
2023/10/11 10:48:18;;;;;;;15.63;11.53;;;17.00;99.90;;;;;;5041981;28;20468;-66
2023/10/11 10:50:50;;;;;;;14.07;11.97;;;17.00;99.90;;;;;;5040988;28;20467;-66
2023/10/11 10:53:24;;;;;;;14.10;12.20;;;17.10;99.90;;;;;;5045805;28;20507;-66
2023/10/11 10:55:57;;;;;;;19.27;12.80;;;17.00;99.90;;;;;;5042678;28;20603;-64
2023/10/11 10:58:27;;;;;;;15.07;12.63;;;17.00;99.90;;;;;;5045020;28;20863;-63
2023/10/11 11:00:59;;;;;;;15.30;12.87;;;16.90;99.90;;;;;;5043639;28;20959;-63
2023/10/11 11:03:32;;;;;;;13.40;11.93;;;17.00;99.90;;;;;;5043143;28;21016;-64
2023/10/11 11:06:01;;;;;;;16.47;13.10;;;17.00;99.90;;;;;;5042724;28;20518;-64
2023/10/11 11:08:37;;;;;;;15.47;13.37;;;17.00;99.90;;;;;;5043761;28;20864;-64
2023/10/11 11:11:19;;;;;;;15.47;12.77;;;17.00;99.90;;;;;;5045357;28;20910;-63
2023/10/11 11:13:48;;;;;;;15.07;12.57;;;17.10;99.90;;;;;;5048226;28;20490;-64
2023/10/11 11:16:16;;;;;;;17.50;12.47;;;17.10;99.90;;;;;;5045381;28;20481;-64
2023/10/11 11:18:44;;;;;;;15.80;13.23;;;17.00;99.90;;;;;;5046789;28;20550;-63
2023/10/11 11:21:21;;;;;;;15.53;13.83;;;17.10;99.90;;;;;;5039071;28;20489;-63
2023/10/11 11:23:51;;;;;;;21.33;17.57;;;17.00;99.90;;;;;;5042772;28;20589;-66
2023/10/11 11:26:21;;;;;;;16.20;14.43;;;17.00;99.90;;;;;;5043345;28;20486;-66
2023/10/11 11:29:10;;;;;;;17.97;14.27;;;17.00;99.90;;;;;;5048848;28;20484;-66
2023/10/11 11:31:51;;;;;;;16.00;13.67;;;17.00;99.90;;;;;;5046414;28;20465;-64
2023/10/11 11:34:27;;;;;;;15.23;13.73;;;17.00;99.90;;;;;;5054211;28;20603;-63
2023/10/11 11:36:57;;;;;;;17.67;14.47;;;17.00;99.90;;;;;;5070641;28;20489;-64
2023/10/11 11:39:51;;;;;;;15.63;13.90;;;17.00;99.90;;;;;;5069333;28;20464;-64
2023/10/11 11:42:19;;;;;;;14.97;13.40;;;17.00;99.90;;;;;;5071303;28;21271;-64
2023/10/11 11:44:49;;;;;;;16.70;13.30;;;17.00;99.90;;;;;;5063575;28;20516;-63
2023/10/11 11:47:21;;;;;;;15.73;12.93;;;17.00;99.90;;;;;;5049314;28;21232;-64
2023/10/11 11:49:58;;;;;;;16.80;15.03;;;17.00;99.90;;;;;;5045193;28;20502;-64
2023/10/11 11:52:28;;;;;;;15.67;13.23;;;17.00;99.90;;;;;;5045060;28;20509;-63
2023/10/11 11:54:57;;;;;;;17.00;15.13;;;17.00;99.90;;;;;;5045221;28;20481;-64
2023/10/11 11:57:29;;;;;;;15.50;13.63;;;17.00;99.90;;;;;;5050217;28;21309;-64
2023/10/11 12:00:01;;;;;;;14.73;13.23;;;17.00;99.90;;;;;;5053417;28;20499;-64
2023/10/11 12:02:28;;;;;;;16.07;14.37;;;17.00;99.90;;;;;;5047386;28;20477;-63
2023/10/11 12:04:57;;;;;;;14.70;11.80;;;17.10;99.90;;;;;;5049277;28;20567;-64
2023/10/11 12:07:24;;;;;;;14.13;12.60;;;17.10;99.90;;;;;;5055438;28;20592;-64
2023/10/11 12:09:55;;;;;;;15.23;12.00;;;17.20;99.90;;;;;;5055127;28;20539;-64
2023/10/11 12:12:32;;;;;;;13.30;12.00;;;17.20;99.90;;;;;;5054546;28;20485;-63
2023/10/11 12:15:00;;;;;;;14.30;12.07;;;17.30;99.90;;;;;;5049484;28;20494;-64
2023/10/11 12:17:29;;;;;;;13.33;11.93;;;17.30;99.90;;;;;;5051099;28;20496;-64
2023/10/11 12:19:57;;;;;;;14.40;12.20;;;17.40;99.90;;;;;;5050881;28;20566;-63
2023/10/11 12:22:25;;;;;;;13.17;11.87;;;17.40;99.90;;;;;;5052776;28;20473;-64
2023/10/11 12:24:58;;;;;;;12.37;11.13;;;17.50;99.90;;;;;;5057872;28;20484;-64
2023/10/11 12:27:26;;;;;;;12.73;11.57;;;17.50;99.90;;;;;;5072583;28;20685;-64
2023/10/11 12:29:56;;;;;;;10.90;9.90;;;17.60;99.90;;;;;;5072935;28;20479;-64
2023/10/11 12:32:36;;;;;;;11.47;10.27;;;18.00;99.90;;;;;;5062914;28;20548;-64
2023/10/11 12:35:07;;;;;;;14.50;10.40;;;18.50;99.90;;;;;;5063100;27;20494;-64
2023/10/11 12:37:40;;;;;;;10.07;9.10;;;18.70;99.90;;;;;;5051910;28;20535;-64
2023/10/11 12:40:12;;;;;;;12.07;9.63;;;19.00;99.90;;;;;;5054537;28;20465;-64
2023/10/11 12:42:44;;;;;;;9.03;8.13;;;19.60;99.90;;;;;;5053488;28;20469;-63
2023/10/11 12:45:16;;;;;;;9.57;8.60;;;19.70;99.90;;;;;;5052646;28;20485;-65
2023/10/11 12:47:45;;;;;;;10.33;8.07;;;19.90;99.90;;;;;;5049220;28;20906;-64
2023/10/11 12:50:14;;;;;;;8.30;6.70;;;20.20;99.90;;;;;;5052238;28;20470;-64
2023/10/11 12:52:42;;;;;;;7.80;6.70;;;21.40;99.90;;;;;;5050422;28;20528;-65
2023/10/11 12:55:12;;;;;;;7.60;6.33;;;22.50;99.90;;;;;;5052977;28;20488;-64
2023/10/11 12:57:41;;;;;;;6.57;5.97;;;23.10;99.90;;;;;;5049632;28;20565;-63
2023/10/11 13:00:28;;;;;;;7.10;5.30;;;23.30;99.90;;;;;;5053893;28;20523;-66
2023/10/11 13:03:15;;;;;;;6.20;5.60;;;23.20;99.90;;;;;;5053366;28;22320;-63
2023/10/11 13:05:45;;;;;;;7.00;6.40;;;22.70;99.90;;;;;;5049717;28;20866;-63
2023/10/11 13:08:14;;;;;;;7.43;6.60;;;22.20;99.90;;;;;;5046345;28;20470;-66
2023/10/11 13:10:45;;;;;;;6.80;6.20;;;22.20;99.90;;;;;;5048381;28;20565;-67
2023/10/11 13:13:15;;;;;;;7.37;6.67;;;21.80;99.90;;;;;;5049191;28;20508;-66
2023/10/11 13:15:53;;;;;;;8.03;7.23;;;21.40;99.90;;;;;;5043409;28;20490;-66
2023/10/11 13:18:24;;;;;;;8.53;7.73;;;21.00;99.90;;;;;;5049719;28;20895;-66
2023/10/11 13:20:53;;;;;;;7.60;6.90;;;20.70;99.90;;;;;;5048676;28;20534;-67
2023/10/11 13:23:28;;;;;;;9.10;7.63;;;20.70;99.90;;;;;;5054214;28;20542;-64
2023/10/11 13:25:59;;;;;;;15.63;8.60;;;20.60;99.90;;;;;;5047548;28;20481;-64
2023/10/11 13:28:28;;;;;;;10.17;7.80;;;20.30;99.90;;;;;;5049166;28;20481;-66
2023/10/11 13:31:00;;;;;;;9.63;8.13;;;20.10;99.90;;;;;;5046084;28;20474;-67
2023/10/11 13:33:36;;;;;;;9.23;8.00;;;19.90;99.90;;;;;;5043842;28;20497;-64